sensor_id;sensor_type;location;lat;lon;timestamp;P1;durP1;ratioP1;P2;durP2;ratioP2
63089;SDS011;49174;43.198;27.824;2023-01-09T05:04:46;6.63;;;4.35;;
63089;SDS011;49174;43.198;27.824;2023-01-09T05:07:12;8.02;;;3.67;;
63089;SDS011;49174;43.198;27.824;2023-01-09T05:09:37;7.57;;;3.25;;
63089;SDS011;49174;43.198;27.824;2023-01-09T05:12:03;6.32;;;3.40;;
63089;SDS011;49174;43.198;27.824;2023-01-09T05:14:29;7.30;;;3.20;;
63089;SDS011;49174;43.198;27.824;2023-01-09T05:16:54;10.05;;;4.68;;
63089;SDS011;49174;43.198;27.824;2023-01-09T05:19:21;20.98;;;8.52;;
63089;SDS011;49174;43.198;27.824;2023-01-09T05:21:47;6.15;;;3.58;;
63089;SDS011;49174;43.198;27.824;2023-01-09T05:24:13;6.38;;;3.40;;
63089;SDS011;49174;43.198;27.824;2023-01-09T05:26:38;4.78;;;2.70;;
63089;SDS011;49174;43.198;27.824;2023-01-09T05:29:04;7.70;;;4.40;;
63089;SDS011;49174;43.198;27.824;2023-01-09T05:31:29;4.00;;;2.03;;
63089;SDS011;49174;43.198;27.824;2023-01-09T05:33:55;3.30;;;1.80;;
63089;SDS011;49174;43.198;27.824;2023-01-09T05:36:23;2.67;;;1.70;;
63089;SDS011;49174;43.198;27.824;2023-01-09T05:38:49;3.35;;;2.10;;
63089;SDS011;49174;43.198;27.824;2023-01-09T05:41:14;4.80;;;1.70;;
63089;SDS011;49174;43.198;27.824;2023-01-09T05:43:40;3.97;;;2.35;;
63089;SDS011;49174;43.198;27.824;2023-01-09T05:46:05;6.20;;;2.30;;
63089;SDS011;49174;43.198;27.824;2023-01-09T05:48:31;9.40;;;4.57;;
63089;SDS011;49174;43.198;27.824;2023-01-09T05:50:56;10.65;;;4.30;;
63089;SDS011;49174;43.198;27.824;2023-01-09T05:53:22;7.70;;;4.53;;
63089;SDS011;49174;43.198;27.824;2023-01-09T05:55:47;8.40;;;4.38;;
63089;SDS011;49174;43.198;27.824;2023-01-09T05:58:13;9.27;;;3.58;;
63089;SDS011;49174;43.198;27.824;2023-01-09T06:00:38;6.03;;;2.90;;
63089;SDS011;49174;43.198;27.824;2023-01-09T06:03:04;7.30;;;2.55;;
63089;SDS011;49174;43.198;27.824;2023-01-09T06:05:43;8.20;;;2.88;;
63089;SDS011;49174;43.198;27.824;2023-01-09T06:08:08;7.45;;;3.95;;
63089;SDS011;49174;43.198;27.824;2023-01-09T06:10:34;7.00;;;3.63;;
63089;SDS011;49174;43.198;27.824;2023-01-09T06:13:00;9.93;;;5.20;;
63089;SDS011;49174;43.198;27.824;2023-01-09T06:15:26;9.57;;;4.15;;
63089;SDS011;49174;43.198;27.824;2023-01-09T06:17:52;9.77;;;4.80;;
63089;SDS011;49174;43.198;27.824;2023-01-09T06:20:17;7.82;;;5.22;;
63089;SDS011;49174;43.198;27.824;2023-01-09T06:22:54;8.00;;;5.00;;
63089;SDS011;49174;43.198;27.824;2023-01-09T06:25:19;8.88;;;4.35;;
63089;SDS011;49174;43.198;27.824;2023-01-09T06:27:45;8.57;;;4.47;;
63089;SDS011;49174;43.198;27.824;2023-01-09T06:30:11;11.00;;;6.60;;
63089;SDS011;49174;43.198;27.824;2023-01-09T06:32:36;10.20;;;6.30;;
63089;SDS011;49174;43.198;27.824;2023-01-09T06:35:02;9.13;;;5.45;;
63089;SDS011;49174;43.198;27.824;2023-01-09T06:37:28;8.35;;;5.05;;
63089;SDS011;49174;43.198;27.824;2023-01-09T06:39:53;8.02;;;5.63;;
63089;SDS011;49174;43.198;27.824;2023-01-09T06:42:19;10.43;;;6.00;;
63089;SDS011;49174;43.198;27.824;2023-01-09T06:44:46;10.25;;;6.55;;
63089;SDS011;49174;43.198;27.824;2023-01-09T06:47:11;12.27;;;7.70;;
63089;SDS011;49174;43.198;27.824;2023-01-09T06:49:37;9.75;;;5.88;;
63089;SDS011;49174;43.198;27.824;2023-01-09T06:52:02;14.15;;;6.38;;
63089;SDS011;49174;43.198;27.824;2023-01-09T06:54:31;8.95;;;5.80;;
63089;SDS011;49174;43.198;27.824;2023-01-09T06:56:56;13.10;;;7.05;;
63089;SDS011;49174;43.198;27.824;2023-01-09T06:59:22;8.57;;;5.72;;
63089;SDS011;49174;43.198;27.824;2023-01-09T07:01:47;8.55;;;5.32;;
63089;SDS011;49174;43.198;27.824;2023-01-09T07:04:13;14.20;;;8.18;;
63089;SDS011;49174;43.198;27.824;2023-01-09T07:06:38;21.27;;;15.35;;
63089;SDS011;49174;43.198;27.824;2023-01-09T07:09:04;16.58;;;11.40;;
63089;SDS011;49174;43.198;27.824;2023-01-09T07:11:32;18.88;;;11.60;;
63089;SDS011;49174;43.198;27.824;2023-01-09T07:13:58;16.60;;;9.05;;
63089;SDS011;49174;43.198;27.824;2023-01-09T07:16:23;22.92;;;11.45;;
63089;SDS011;49174;43.198;27.824;2023-01-09T07:18:49;18.08;;;9.27;;
63089;SDS011;49174;43.198;27.824;2023-01-09T07:21:14;19.58;;;7.85;;
63089;SDS011;49174;43.198;27.824;2023-01-09T07:23:40;6.78;;;2.47;;
63089;SDS011;49174;43.198;27.824;2023-01-09T07:26:05;9.65;;;2.08;;
63089;SDS011;49174;43.198;27.824;2023-01-09T07:28:31;3.22;;;1.42;;
63089;SDS011;49174;43.198;27.824;2023-01-09T07:30:57;3.92;;;1.35;;
63089;SDS011;49174;43.198;27.824;2023-01-09T07:33:26;2.95;;;1.80;;
63089;SDS011;49174;43.198;27.824;2023-01-09T07:35:52;4.93;;;1.55;;
63089;SDS011;49174;43.198;27.824;2023-01-09T07:38:17;8.75;;;1.83;;
63089;SDS011;49174;43.198;27.824;2023-01-09T07:40:43;5.13;;;1.60;;
63089;SDS011;49174;43.198;27.824;2023-01-09T07:43:09;6.93;;;2.28;;
63089;SDS011;49174;43.198;27.824;2023-01-09T07:45:34;5.03;;;2.10;;
63089;SDS011;49174;43.198;27.824;2023-01-09T07:48:00;10.85;;;1.77;;
63089;SDS011;49174;43.198;27.824;2023-01-09T07:50:25;8.75;;;2.85;;
63089;SDS011;49174;43.198;27.824;2023-01-09T07:52:51;4.78;;;2.13;;
63089;SDS011;49174;43.198;27.824;2023-01-09T07:55:16;2.83;;;1.55;;
63089;SDS011;49174;43.198;27.824;2023-01-09T07:57:42;3.25;;;1.15;;
63089;SDS011;49174;43.198;27.824;2023-01-09T08:00:07;4.07;;;1.38;;
63089;SDS011;49174;43.198;27.824;2023-01-09T08:02:35;4.82;;;1.70;;
63089;SDS011;49174;43.198;27.824;2023-01-09T08:05:01;7.38;;;2.15;;
63089;SDS011;49174;43.198;27.824;2023-01-09T08:07:27;5.43;;;1.92;;
63089;SDS011;49174;43.198;27.824;2023-01-09T08:09:52;3.50;;;1.80;;
63089;SDS011;49174;43.198;27.824;2023-01-09T08:12:18;4.80;;;2.35;;
63089;SDS011;49174;43.198;27.824;2023-01-09T08:14:43;7.25;;;4.22;;
63089;SDS011;49174;43.198;27.824;2023-01-09T08:17:11;7.45;;;2.30;;
63089;SDS011;49174;43.198;27.824;2023-01-09T08:19:37;4.80;;;1.42;;
63089;SDS011;49174;43.198;27.824;2023-01-09T08:22:02;6.38;;;1.80;;
63089;SDS011;49174;43.198;27.824;2023-01-09T08:24:28;4.82;;;1.20;;
63089;SDS011;49174;43.198;27.824;2023-01-09T08:26:54;4.88;;;1.85;;
63089;SDS011;49174;43.198;27.824;2023-01-09T08:29:20;5.85;;;2.15;;
63089;SDS011;49174;43.198;27.824;2023-01-09T08:31:46;8.05;;;2.30;;
63089;SDS011;49174;43.198;27.824;2023-01-09T08:34:11;5.07;;;1.45;;
63089;SDS011;49174;43.198;27.824;2023-01-09T08:36:37;5.03;;;2.00;;
63089;SDS011;49174;43.198;27.824;2023-01-09T08:39:02;2.60;;;1.30;;
63089;SDS011;49174;43.198;27.824;2023-01-09T08:41:28;2.58;;;1.38;;
63089;SDS011;49174;43.198;27.824;2023-01-09T08:44:12;4.35;;;1.50;;
63089;SDS011;49174;43.198;27.824;2023-01-09T08:46:56;9.45;;;1.63;;
63089;SDS011;49174;43.198;27.824;2023-01-09T08:49:35;7.68;;;1.77;;
63089;SDS011;49174;43.198;27.824;2023-01-09T08:52:02;2.67;;;1.35;;
63089;SDS011;49174;43.198;27.824;2023-01-09T08:54:32;3.10;;;1.65;;
63089;SDS011;49174;43.198;27.824;2023-01-09T08:57:01;3.88;;;1.40;;
63089;SDS011;49174;43.198;27.824;2023-01-09T08:59:26;2.03;;;1.42;;
63089;SDS011;49174;43.198;27.824;2023-01-09T09:01:52;6.32;;;3.17;;
63089;SDS011;49174;43.198;27.824;2023-01-09T09:04:17;7.13;;;1.42;;
63089;SDS011;49174;43.198;27.824;2023-01-09T09:06:43;6.55;;;1.75;;
63089;SDS011;49174;43.198;27.824;2023-01-09T09:09:09;3.30;;;1.40;;
63089;SDS011;49174;43.198;27.824;2023-01-09T09:11:35;4.75;;;1.60;;
63089;SDS011;49174;43.198;27.824;2023-01-09T09:14:01;11.50;;;2.38;;
63089;SDS011;49174;43.198;27.824;2023-01-09T09:16:49;6.47;;;1.90;;
63089;SDS011;49174;43.198;27.824;2023-01-09T09:19:17;4.55;;;2.53;;
63089;SDS011;49174;43.198;27.824;2023-01-09T09:21:42;6.32;;;1.98;;
63089;SDS011;49174;43.198;27.824;2023-01-09T09:24:08;5.03;;;2.60;;
63089;SDS011;49174;43.198;27.824;2023-01-09T09:26:33;5.03;;;2.03;;
63089;SDS011;49174;43.198;27.824;2023-01-09T09:28:59;7.35;;;2.53;;
63089;SDS011;49174;43.198;27.824;2023-01-09T09:31:24;5.63;;;2.35;;
63089;SDS011;49174;43.198;27.824;2023-01-09T09:33:50;4.20;;;2.17;;
63089;SDS011;49174;43.198;27.824;2023-01-09T09:36:16;15.18;;;6.68;;
63089;SDS011;49174;43.198;27.824;2023-01-09T09:38:41;4.68;;;2.08;;
63089;SDS011;49174;43.198;27.824;2023-01-09T09:50:13;4.30;;;2.00;;
63089;SDS011;49174;43.198;27.824;2023-01-09T09:52:58;4.38;;;1.92;;
63089;SDS011;49174;43.198;27.824;2023-01-09T09:55:32;5.00;;;2.45;;
63089;SDS011;49174;43.198;27.824;2023-01-09T09:58:02;3.75;;;1.50;;
63089;SDS011;49174;43.198;27.824;2023-01-09T10:00:34;7.53;;;2.08;;
63089;SDS011;49174;43.198;27.824;2023-01-09T10:03:04;4.55;;;2.63;;
63089;SDS011;49174;43.198;27.824;2023-01-09T10:05:36;5.50;;;1.85;;
63089;SDS011;49174;43.198;27.824;2023-01-09T10:08:29;5.22;;;1.80;;
63089;SDS011;49174;43.198;27.824;2023-01-09T10:11:19;5.07;;;2.75;;
63089;SDS011;49174;43.198;27.824;2023-01-09T10:13:50;5.57;;;1.98;;
63089;SDS011;49174;43.198;27.824;2023-01-09T10:39:02;8.05;;;2.30;;
63089;SDS011;49174;43.198;27.824;2023-01-09T10:41:36;7.13;;;2.78;;
63089;SDS011;49174;43.198;27.824;2023-01-09T10:44:15;6.07;;;2.47;;
63089;SDS011;49174;43.198;27.824;2023-01-09T10:47:08;5.20;;;3.17;;
63089;SDS011;49174;43.198;27.824;2023-01-09T10:49:40;4.13;;;2.15;;
63089;SDS011;49174;43.198;27.824;2023-01-09T10:54:53;5.57;;;2.35;;
63089;SDS011;49174;43.198;27.824;2023-01-09T11:00:04;7.68;;;2.90;;
63089;SDS011;49174;43.198;27.824;2023-01-09T11:02:32;4.05;;;2.42;;
63089;SDS011;49174;43.198;27.824;2023-01-09T11:04:59;3.67;;;2.47;;
63089;SDS011;49174;43.198;27.824;2023-01-09T11:07:32;3.35;;;1.80;;
63089;SDS011;49174;43.198;27.824;2023-01-09T11:10:11;9.38;;;3.35;;
63089;SDS011;49174;43.198;27.824;2023-01-09T11:12:38;5.97;;;2.40;;
63089;SDS011;49174;43.198;27.824;2023-01-09T11:15:21;8.75;;;2.60;;
63089;SDS011;49174;43.198;27.824;2023-01-09T11:17:54;5.55;;;2.50;;
63089;SDS011;49174;43.198;27.824;2023-01-09T11:20:40;6.00;;;3.00;;
63089;SDS011;49174;43.198;27.824;2023-01-09T11:47:36;6.50;;;2.33;;
63089;SDS011;49174;43.198;27.824;2023-01-09T11:50:59;4.88;;;2.75;;
63089;SDS011;49174;43.198;27.824;2023-01-09T12:40:50;7.65;;;3.05;;
63089;SDS011;49174;43.198;27.824;2023-01-09T12:55:49;8.00;;;3.17;;
63089;SDS011;49174;43.198;27.824;2023-01-09T13:01:16;6.97;;;3.40;;
63089;SDS011;49174;43.198;27.824;2023-01-09T13:06:44;5.63;;;3.10;;
63089;SDS011;49174;43.198;27.824;2023-01-09T13:59:43;8.10;;;4.10;;
63089;SDS011;49174;43.198;27.824;2023-01-09T14:07:41;10.73;;;5.13;;
63089;SDS011;49174;43.198;27.824;2023-01-09T14:13:31;11.05;;;5.63;;
63089;SDS011;49174;43.198;27.824;2023-01-09T14:16:20;13.02;;;5.20;;
63089;SDS011;49174;43.198;27.824;2023-01-09T14:19:01;9.43;;;4.70;;
63089;SDS011;49174;43.198;27.824;2023-01-09T14:21:47;9.70;;;5.25;;
63089;SDS011;49174;43.198;27.824;2023-01-09T14:37:33;9.05;;;4.10;;
